sensor_id;sensor_type;location;lat;lon;timestamp;P1;durP1;ratioP1;P2;durP2;ratioP2
13832;SDS011;6987;19.472;-99.276;2022-10-31T00:02:13;10.90;;;9.73;;
13832;SDS011;6987;19.472;-99.276;2022-10-31T00:04:42;12.75;;;11.52;;
13832;SDS011;6987;19.472;-99.276;2022-10-31T00:07:11;17.38;;;10.80;;
13832;SDS011;6987;19.472;-99.276;2022-10-31T00:09:40;10.80;;;9.50;;
13832;SDS011;6987;19.472;-99.276;2022-10-31T00:12:09;12.98;;;10.07;;
13832;SDS011;6987;19.472;-99.276;2022-10-31T00:14:37;13.30;;;10.10;;
13832;SDS011;6987;19.472;-99.276;2022-10-31T00:17:08;10.45;;;9.13;;
13832;SDS011;6987;19.472;-99.276;2022-10-31T00:19:37;12.02;;;10.30;;
13832;SDS011;6987;19.472;-99.276;2022-10-31T00:22:05;11.13;;;9.32;;
13832;SDS011;6987;19.472;-99.276;2022-10-31T00:24:34;10.52;;;9.48;;
13832;SDS011;6987;19.472;-99.276;2022-10-31T00:27:03;11.23;;;9.52;;
13832;SDS011;6987;19.472;-99.276;2022-10-31T00:29:32;13.30;;;10.73;;
13832;SDS011;6987;19.472;-99.276;2022-10-31T00:32:01;13.00;;;9.63;;
13832;SDS011;6987;19.472;-99.276;2022-10-31T00:34:32;15.82;;;10.73;;
13832;SDS011;6987;19.472;-99.276;2022-10-31T00:37:01;12.32;;;10.18;;
13832;SDS011;6987;19.472;-99.276;2022-10-31T00:39:30;12.18;;;9.48;;
13832;SDS011;6987;19.472;-99.276;2022-10-31T00:41:58;13.00;;;10.63;;
13832;SDS011;6987;19.472;-99.276;2022-10-31T00:44:27;11.70;;;9.32;;
13832;SDS011;6987;19.472;-99.276;2022-10-31T00:46:56;14.65;;;9.98;;
13832;SDS011;6987;19.472;-99.276;2022-10-31T00:49:25;11.48;;;9.43;;
13832;SDS011;6987;19.472;-99.276;2022-10-31T00:51:56;10.23;;;9.23;;
13832;SDS011;6987;19.472;-99.276;2022-10-31T00:54:25;10.30;;;9.13;;
13832;SDS011;6987;19.472;-99.276;2022-10-31T00:56:54;11.07;;;9.57;;
13832;SDS011;6987;19.472;-99.276;2022-10-31T00:59:22;10.00;;;9.00;;
13832;SDS011;6987;19.472;-99.276;2022-10-31T01:01:51;17.70;;;10.05;;
13832;SDS011;6987;19.472;-99.276;2022-10-31T01:04:20;11.57;;;9.95;;
13832;SDS011;6987;19.472;-99.276;2022-10-31T01:06:49;10.48;;;9.40;;
13832;SDS011;6987;19.472;-99.276;2022-10-31T01:09:20;13.90;;;10.25;;
13832;SDS011;6987;19.472;-99.276;2022-10-31T01:11:48;13.85;;;9.13;;
13832;SDS011;6987;19.472;-99.276;2022-10-31T01:14:17;11.07;;;9.95;;
13832;SDS011;6987;19.472;-99.276;2022-10-31T01:16:46;11.52;;;9.68;;
13832;SDS011;6987;19.472;-99.276;2022-10-31T01:19:15;10.15;;;8.95;;
13832;SDS011;6987;19.472;-99.276;2022-10-31T01:21:45;13.10;;;9.00;;
13832;SDS011;6987;19.472;-99.276;2022-10-31T01:24:14;10.38;;;9.38;;
13832;SDS011;6987;19.472;-99.276;2022-10-31T01:26:44;11.18;;;10.07;;
13832;SDS011;6987;19.472;-99.276;2022-10-31T01:29:13;17.02;;;11.32;;
13832;SDS011;6987;19.472;-99.276;2022-10-31T01:31:42;15.15;;;10.57;;
13832;SDS011;6987;19.472;-99.276;2022-10-31T01:34:11;18.50;;;11.50;;
13832;SDS011;6987;19.472;-99.276;2022-10-31T01:36:41;11.50;;;9.05;;
13832;SDS011;6987;19.472;-99.276;2022-10-31T01:39:11;11.02;;;9.88;;
13832;SDS011;6987;19.472;-99.276;2022-10-31T01:41:40;15.65;;;11.48;;
13832;SDS011;6987;19.472;-99.276;2022-10-31T01:46:55;11.02;;;8.82;;
13832;SDS011;6987;19.472;-99.276;2022-10-31T01:49:24;10.63;;;9.43;;
13832;SDS011;6987;19.472;-99.276;2022-10-31T01:51:56;10.77;;;9.85;;
13832;SDS011;6987;19.472;-99.276;2022-10-31T01:54:26;10.63;;;9.52;;
13832;SDS011;6987;19.472;-99.276;2022-10-31T01:56:56;14.98;;;10.20;;
13832;SDS011;6987;19.472;-99.276;2022-10-31T01:59:26;10.68;;;9.45;;
13832;SDS011;6987;19.472;-99.276;2022-10-31T02:01:58;11.43;;;10.07;;
13832;SDS011;6987;19.472;-99.276;2022-10-31T02:04:27;17.00;;;11.95;;
13832;SDS011;6987;19.472;-99.276;2022-10-31T02:06:57;24.27;;;13.95;;
13832;SDS011;6987;19.472;-99.276;2022-10-31T02:09:27;15.45;;;11.73;;
13832;SDS011;6987;19.472;-99.276;2022-10-31T02:11:57;15.25;;;13.15;;
13832;SDS011;6987;19.472;-99.276;2022-10-31T02:14:27;18.48;;;12.95;;
13832;SDS011;6987;19.472;-99.276;2022-10-31T02:16:59;15.38;;;11.93;;
13832;SDS011;6987;19.472;-99.276;2022-10-31T02:19:30;15.25;;;12.73;;
13832;SDS011;6987;19.472;-99.276;2022-10-31T02:22:02;17.58;;;13.63;;
13832;SDS011;6987;19.472;-99.276;2022-10-31T02:24:39;21.63;;;16.10;;
13832;SDS011;6987;19.472;-99.276;2022-10-31T02:27:27;10.73;;;9.57;;
13832;SDS011;6987;19.472;-99.276;2022-10-31T02:30:07;13.73;;;8.02;;
13832;SDS011;6987;19.472;-99.276;2022-10-31T02:32:49;11.27;;;8.63;;
13832;SDS011;6987;19.472;-99.276;2022-10-31T02:35:23;7.88;;;7.00;;
13832;SDS011;6987;19.472;-99.276;2022-10-31T02:37:55;11.50;;;6.60;;
13832;SDS011;6987;19.472;-99.276;2022-10-31T02:40:26;8.35;;;7.13;;
13832;SDS011;6987;19.472;-99.276;2022-10-31T02:42:57;6.82;;;6.22;;
13832;SDS011;6987;19.472;-99.276;2022-10-31T02:45:29;11.02;;;6.25;;
13832;SDS011;6987;19.472;-99.276;2022-10-31T02:48:01;6.55;;;5.85;;
13832;SDS011;6987;19.472;-99.276;2022-10-31T02:50:32;6.82;;;5.45;;
13832;SDS011;6987;19.472;-99.276;2022-10-31T02:53:02;5.60;;;5.15;;
13832;SDS011;6987;19.472;-99.276;2022-10-31T02:55:44;6.18;;;5.13;;
13832;SDS011;6987;19.472;-99.276;2022-10-31T02:58:16;5.78;;;5.28;;
13832;SDS011;6987;19.472;-99.276;2022-10-31T03:00:56;5.10;;;4.60;;
13832;SDS011;6987;19.472;-99.276;2022-10-31T03:03:32;4.40;;;4.03;;
13832;SDS011;6987;19.472;-99.276;2022-10-31T03:06:02;4.72;;;4.32;;
13832;SDS011;6987;19.472;-99.276;2022-10-31T03:08:39;4.50;;;4.07;;
13832;SDS011;6987;19.472;-99.276;2022-10-31T03:11:10;4.97;;;4.57;;
13832;SDS011;6987;19.472;-99.276;2022-10-31T03:13:41;4.57;;;4.05;;
13832;SDS011;6987;19.472;-99.276;2022-10-31T03:16:12;3.42;;;3.22;;
13832;SDS011;6987;19.472;-99.276;2022-10-31T03:18:45;4.70;;;4.30;;
13832;SDS011;6987;19.472;-99.276;2022-10-31T03:21:18;3.25;;;3.05;;
13832;SDS011;6987;19.472;-99.276;2022-10-31T03:23:49;5.10;;;2.78;;
13832;SDS011;6987;19.472;-99.276;2022-10-31T03:26:18;3.60;;;3.30;;
13832;SDS011;6987;19.472;-99.276;2022-10-31T03:28:48;4.25;;;3.90;;
13832;SDS011;6987;19.472;-99.276;2022-10-31T03:31:18;4.25;;;3.90;;
13832;SDS011;6987;19.472;-99.276;2022-10-31T03:33:49;4.47;;;4.07;;
13832;SDS011;6987;19.472;-99.276;2022-10-31T03:36:19;4.32;;;3.90;;
13832;SDS011;6987;19.472;-99.276;2022-10-31T03:38:49;4.25;;;3.85;;
13832;SDS011;6987;19.472;-99.276;2022-10-31T03:41:18;4.20;;;3.88;;
13832;SDS011;6987;19.472;-99.276;2022-10-31T03:43:51;4.75;;;4.35;;
13832;SDS011;6987;19.472;-99.276;2022-10-31T03:46:20;4.43;;;4.03;;
13832;SDS011;6987;19.472;-99.276;2022-10-31T03:48:51;6.13;;;4.75;;
13832;SDS011;6987;19.472;-99.276;2022-10-31T03:51:22;5.22;;;4.13;;
13832;SDS011;6987;19.472;-99.276;2022-10-31T03:53:52;4.70;;;4.07;;
13832;SDS011;6987;19.472;-99.276;2022-10-31T03:56:23;3.80;;;3.50;;
13832;SDS011;6987;19.472;-99.276;2022-10-31T03:58:55;3.92;;;3.63;;
13832;SDS011;6987;19.472;-99.276;2022-10-31T04:01:26;3.78;;;3.42;;
13832;SDS011;6987;19.472;-99.276;2022-10-31T04:03:59;4.30;;;3.90;;
13832;SDS011;6987;19.472;-99.276;2022-10-31T04:06:28;4.28;;;3.72;;
13832;SDS011;6987;19.472;-99.276;2022-10-31T04:08:59;4.65;;;4.25;;
13832;SDS011;6987;19.472;-99.276;2022-10-31T04:11:29;4.70;;;3.70;;
13832;SDS011;6987;19.472;-99.276;2022-10-31T04:13:59;4.13;;;3.83;;
13832;SDS011;6987;19.472;-99.276;2022-10-31T04:16:28;4.72;;;3.88;;
13832;SDS011;6987;19.472;-99.276;2022-10-31T04:18:59;3.05;;;2.88;;
13832;SDS011;6987;19.472;-99.276;2022-10-31T04:21:28;4.93;;;3.90;;
13832;SDS011;6987;19.472;-99.276;2022-10-31T04:23:57;4.60;;;4.20;;
13832;SDS011;6987;19.472;-99.276;2022-10-31T04:26:26;7.50;;;4.13;;
13832;SDS011;6987;19.472;-99.276;2022-10-31T04:28:55;5.43;;;3.80;;
13832;SDS011;6987;19.472;-99.276;2022-10-31T04:31:24;4.35;;;3.83;;
13832;SDS011;6987;19.472;-99.276;2022-10-31T04:33:52;4.88;;;4.10;;
13832;SDS011;6987;19.472;-99.276;2022-10-31T04:36:23;4.82;;;3.38;;
13832;SDS011;6987;19.472;-99.276;2022-10-31T04:38:52;4.03;;;3.72;;
13832;SDS011;6987;19.472;-99.276;2022-10-31T04:41:21;4.28;;;3.97;;
13832;SDS011;6987;19.472;-99.276;2022-10-31T04:43:50;4.43;;;4.03;;
13832;SDS011;6987;19.472;-99.276;2022-10-31T04:46:19;5.82;;;3.53;;
13832;SDS011;6987;19.472;-99.276;2022-10-31T04:48:48;5.07;;;3.55;;
13832;SDS011;6987;19.472;-99.276;2022-10-31T04:51:17;4.32;;;3.92;;
13832;SDS011;6987;19.472;-99.276;2022-10-31T04:53:47;5.30;;;3.22;;
13832;SDS011;6987;19.472;-99.276;2022-10-31T04:56:16;3.60;;;3.30;;
13832;SDS011;6987;19.472;-99.276;2022-10-31T04:58:45;5.55;;;3.40;;
13832;SDS011;6987;19.472;-99.276;2022-10-31T05:01:14;4.25;;;3.67;;
13832;SDS011;6987;19.472;-99.276;2022-10-31T05:03:43;3.33;;;3.13;;
13832;SDS011;6987;19.472;-99.276;2022-10-31T05:06:12;5.22;;;3.20;;
13832;SDS011;6987;19.472;-99.276;2022-10-31T05:08:42;4.40;;;2.95;;
13832;SDS011;6987;19.472;-99.276;2022-10-31T05:11:12;3.33;;;3.13;;
13832;SDS011;6987;19.472;-99.276;2022-10-31T05:13:41;3.22;;;2.97;;
13832;SDS011;6987;19.472;-99.276;2022-10-31T05:16:10;3.30;;;3.00;;
13832;SDS011;6987;19.472;-99.276;2022-10-31T05:18:39;3.92;;;3.03;;
13832;SDS011;6987;19.472;-99.276;2022-10-31T05:21:08;3.17;;;2.92;;
13832;SDS011;6987;19.472;-99.276;2022-10-31T05:23:36;3.15;;;2.83;;
13832;SDS011;6987;19.472;-99.276;2022-10-31T05:26:05;3.15;;;2.95;;
13832;SDS011;6987;19.472;-99.276;2022-10-31T05:28:36;3.10;;;2.90;;
13832;SDS011;6987;19.472;-99.276;2022-10-31T05:31:05;3.53;;;3.20;;
13832;SDS011;6987;19.472;-99.276;2022-10-31T05:33:34;3.05;;;2.80;;
13832;SDS011;6987;19.472;-99.276;2022-10-31T05:36:03;3.25;;;2.95;;
13832;SDS011;6987;19.472;-99.276;2022-10-31T05:38:32;3.65;;;2.60;;
13832;SDS011;6987;19.472;-99.276;2022-10-31T05:41:01;3.90;;;2.90;;
13832;SDS011;6987;19.472;-99.276;2022-10-31T05:43:29;3.08;;;2.85;;
13832;SDS011;6987;19.472;-99.276;2022-10-31T05:46:04;3.50;;;3.22;;
13832;SDS011;6987;19.472;-99.276;2022-10-31T05:48:33;3.30;;;2.85;;
13832;SDS011;6987;19.472;-99.276;2022-10-31T05:51:05;5.03;;;2.75;;
13832;SDS011;6987;19.472;-99.276;2022-10-31T05:53:33;3.67;;;3.38;;
13832;SDS011;6987;19.472;-99.276;2022-10-31T05:56:02;3.47;;;2.75;;
13832;SDS011;6987;19.472;-99.276;2022-10-31T05:58:31;3.83;;;3.08;;
13832;SDS011;6987;19.472;-99.276;2022-10-31T06:01:00;3.38;;;3.17;;
13832;SDS011;6987;19.472;-99.276;2022-10-31T06:03:31;4.85;;;3.05;;
13832;SDS011;6987;19.472;-99.276;2022-10-31T06:05:59;3.17;;;2.97;;
13832;SDS011;6987;19.472;-99.276;2022-10-31T06:08:28;3.65;;;3.35;;
13832;SDS011;6987;19.472;-99.276;2022-10-31T06:10:57;3.40;;;3.15;;
13832;SDS011;6987;19.472;-99.276;2022-10-31T06:13:26;5.05;;;2.92;;
13832;SDS011;6987;19.472;-99.276;2022-10-31T06:15:55;3.25;;;2.95;;
13832;SDS011;6987;19.472;-99.276;2022-10-31T06:18:24;2.90;;;2.70;;
13832;SDS011;6987;19.472;-99.276;2022-10-31T06:20:54;3.13;;;2.85;;
13832;SDS011;6987;19.472;-99.276;2022-10-31T06:23:23;4.40;;;3.22;;
13832;SDS011;6987;19.472;-99.276;2022-10-31T06:25:52;3.10;;;2.90;;
13832;SDS011;6987;19.472;-99.276;2022-10-31T06:28:21;2.88;;;2.67;;
13832;SDS011;6987;19.472;-99.276;2022-10-31T06:30:50;3.40;;;3.20;;
13832;SDS011;6987;19.472;-99.276;2022-10-31T06:33:19;4.47;;;3.20;;
13832;SDS011;6987;19.472;-99.276;2022-10-31T06:35:47;3.45;;;3.15;;
13832;SDS011;6987;19.472;-99.276;2022-10-31T06:38:18;4.95;;;2.95;;
13832;SDS011;6987;19.472;-99.276;2022-10-31T06:40:47;3.45;;;3.15;;
13832;SDS011;6987;19.472;-99.276;2022-10-31T06:43:16;8.07;;;3.70;;
13832;SDS011;6987;19.472;-99.276;2022-10-31T06:45:47;2.65;;;2.55;;
13832;SDS011;6987;19.472;-99.276;2022-10-31T06:48:16;5.97;;;3.00;;
13832;SDS011;6987;19.472;-99.276;2022-10-31T06:50:45;3.20;;;2.92;;
13832;SDS011;6987;19.472;-99.276;2022-10-31T06:53:18;3.55;;;3.22;;
13832;SDS011;6987;19.472;-99.276;2022-10-31T06:55:49;4.00;;;3.42;;
13832;SDS011;6987;19.472;-99.276;2022-10-31T06:58:18;5.82;;;3.30;;
13832;SDS011;6987;19.472;-99.276;2022-10-31T07:00:47;3.95;;;3.00;;
13832;SDS011;6987;19.472;-99.276;2022-10-31T07:03:16;4.07;;;3.78;;
13832;SDS011;6987;19.472;-99.276;2022-10-31T07:05:45;3.20;;;3.00;;
13832;SDS011;6987;19.472;-99.276;2022-10-31T07:08:14;3.78;;;3.30;;
13832;SDS011;6987;19.472;-99.276;2022-10-31T07:10:50;7.32;;;3.25;;
13832;SDS011;6987;19.472;-99.276;2022-10-31T07:13:19;4.55;;;3.47;;
13832;SDS011;6987;19.472;-99.276;2022-10-31T07:15:51;6.88;;;3.08;;
13832;SDS011;6987;19.472;-99.276;2022-10-31T07:18:20;3.58;;;3.20;;
13832;SDS011;6987;19.472;-99.276;2022-10-31T07:20:51;3.83;;;3.40;;
13832;SDS011;6987;19.472;-99.276;2022-10-31T07:23:19;3.55;;;3.35;;
13832;SDS011;6987;19.472;-99.276;2022-10-31T07:25:53;4.00;;;3.45;;
13832;SDS011;6987;19.472;-99.276;2022-10-31T07:28:23;3.30;;;3.00;;
13832;SDS011;6987;19.472;-99.276;2022-10-31T07:30:52;3.15;;;2.95;;
13832;SDS011;6987;19.472;-99.276;2022-10-31T07:33:21;4.10;;;3.70;;
13832;SDS011;6987;19.472;-99.276;2022-10-31T07:35:51;4.00;;;3.67;;
13832;SDS011;6987;19.472;-99.276;2022-10-31T07:38:20;3.72;;;3.40;;
13832;SDS011;6987;19.472;-99.276;2022-10-31T07:40:51;4.30;;;4.00;;
13832;SDS011;6987;19.472;-99.276;2022-10-31T07:43:20;4.55;;;3.13;;
13832;SDS011;6987;19.472;-99.276;2022-10-31T07:45:50;3.85;;;3.42;;
13832;SDS011;6987;19.472;-99.276;2022-10-31T07:48:19;4.63;;;3.75;;
13832;SDS011;6987;19.472;-99.276;2022-10-31T07:50:48;3.55;;;3.35;;
13832;SDS011;6987;19.472;-99.276;2022-10-31T07:53:20;3.78;;;3.35;;
13832;SDS011;6987;19.472;-99.276;2022-10-31T07:55:53;4.05;;;3.75;;
13832;SDS011;6987;19.472;-99.276;2022-10-31T07:58:24;4.60;;;4.20;;
13832;SDS011;6987;19.472;-99.276;2022-10-31T08:00:53;4.38;;;4.03;;
13832;SDS011;6987;19.472;-99.276;2022-10-31T08:03:22;4.55;;;4.18;;
13832;SDS011;6987;19.472;-99.276;2022-10-31T08:05:51;4.50;;;3.92;;
13832;SDS011;6987;19.472;-99.276;2022-10-31T08:08:23;4.80;;;4.40;;
13832;SDS011;6987;19.472;-99.276;2022-10-31T08:10:57;4.47;;;4.10;;
13832;SDS011;6987;19.472;-99.276;2022-10-31T08:13:26;4.20;;;3.90;;
13832;SDS011;6987;19.472;-99.276;2022-10-31T08:15:55;5.05;;;4.55;;
13832;SDS011;6987;19.472;-99.276;2022-10-31T08:18:29;4.70;;;4.38;;
13832;SDS011;6987;19.472;-99.276;2022-10-31T08:20:58;4.50;;;4.20;;
13832;SDS011;6987;19.472;-99.276;2022-10-31T08:23:29;4.63;;;3.72;;
13832;SDS011;6987;19.472;-99.276;2022-10-31T08:25:59;6.60;;;4.78;;
13832;SDS011;6987;19.472;-99.276;2022-10-31T08:28:28;4.60;;;4.20;;
13832;SDS011;6987;19.472;-99.276;2022-10-31T08:30:58;4.65;;;4.25;;
13832;SDS011;6987;19.472;-99.276;2022-10-31T08:33:29;4.78;;;4.38;;
13832;SDS011;6987;19.472;-99.276;2022-10-31T08:35:58;5.30;;;4.80;;
13832;SDS011;6987;19.472;-99.276;2022-10-31T08:38:27;4.65;;;4.35;;
13832;SDS011;6987;19.472;-99.276;2022-10-31T08:40:56;5.18;;;4.68;;
13832;SDS011;6987;19.472;-99.276;2022-10-31T08:43:26;7.85;;;4.75;;
13832;SDS011;6987;19.472;-99.276;2022-10-31T08:45:55;4.55;;;4.25;;
13832;SDS011;6987;19.472;-99.276;2022-10-31T08:48:24;4.47;;;4.07;;
13832;SDS011;6987;19.472;-99.276;2022-10-31T08:50:55;6.90;;;4.93;;
13832;SDS011;6987;19.472;-99.276;2022-10-31T08:53:24;5.22;;;4.55;;
13832;SDS011;6987;19.472;-99.276;2022-10-31T08:55:54;5.35;;;4.85;;
13832;SDS011;6987;19.472;-99.276;2022-10-31T08:58:23;5.10;;;4.70;;
13832;SDS011;6987;19.472;-99.276;2022-10-31T09:00:54;4.88;;;4.47;;
13832;SDS011;6987;19.472;-99.276;2022-10-31T09:03:27;5.95;;;5.05;;
13832;SDS011;6987;19.472;-99.276;2022-10-31T09:05:57;4.85;;;4.45;;
13832;SDS011;6987;19.472;-99.276;2022-10-31T09:08:26;5.88;;;5.15;;
13832;SDS011;6987;19.472;-99.276;2022-10-31T09:10:55;5.40;;;4.90;;
13832;SDS011;6987;19.472;-99.276;2022-10-31T09:13:24;4.97;;;4.57;;
13832;SDS011;6987;19.472;-99.276;2022-10-31T09:15:55;6.22;;;5.50;;
13832;SDS011;6987;19.472;-99.276;2022-10-31T09:18:25;5.78;;;5.28;;
13832;SDS011;6987;19.472;-99.276;2022-10-31T09:20:56;9.80;;;5.50;;
13832;SDS011;6987;19.472;-99.276;2022-10-31T09:23:25;6.63;;;6.03;;
13832;SDS011;6987;19.472;-99.276;2022-10-31T09:25:54;6.70;;;6.10;;
13832;SDS011;6987;19.472;-99.276;2022-10-31T09:28:23;5.97;;;5.38;;
13832;SDS011;6987;19.472;-99.276;2022-10-31T09:30:52;6.53;;;5.93;;
13832;SDS011;6987;19.472;-99.276;2022-10-31T09:33:23;6.80;;;6.10;;
13832;SDS011;6987;19.472;-99.276;2022-10-31T09:35:52;6.68;;;6.07;;
13832;SDS011;6987;19.472;-99.276;2022-10-31T09:38:21;7.88;;;6.50;;
13832;SDS011;6987;19.472;-99.276;2022-10-31T09:40:52;7.28;;;6.28;;
13832;SDS011;6987;19.472;-99.276;2022-10-31T09:43:25;8.30;;;7.50;;
13832;SDS011;6987;19.472;-99.276;2022-10-31T09:45:57;7.20;;;6.60;;
13832;SDS011;6987;19.472;-99.276;2022-10-31T09:48:34;8.02;;;7.22;;
13832;SDS011;6987;19.472;-99.276;2022-10-31T09:51:05;8.55;;;7.70;;
13832;SDS011;6987;19.472;-99.276;2022-10-31T09:53:35;8.73;;;6.95;;
13832;SDS011;6987;19.472;-99.276;2022-10-31T09:56:05;8.30;;;7.28;;
13832;SDS011;6987;19.472;-99.276;2022-10-31T09:58:39;8.05;;;7.25;;
13832;SDS011;6987;19.472;-99.276;2022-10-31T10:01:11;10.05;;;7.90;;
13832;SDS011;6987;19.472;-99.276;2022-10-31T10:03:46;9.13;;;8.23;;
13832;SDS011;6987;19.472;-99.276;2022-10-31T10:06:18;9.13;;;8.27;;
13832;SDS011;6987;19.472;-99.276;2022-10-31T10:08:49;9.98;;;8.98;;
13832;SDS011;6987;19.472;-99.276;2022-10-31T10:11:22;14.30;;;8.50;;
13832;SDS011;6987;19.472;-99.276;2022-10-31T10:13:59;11.45;;;9.23;;
13832;SDS011;6987;19.472;-99.276;2022-10-31T10:16:35;8.85;;;7.82;;
13832;SDS011;6987;19.472;-99.276;2022-10-31T10:19:13;9.43;;;8.50;;
13832;SDS011;6987;19.472;-99.276;2022-10-31T10:21:45;12.55;;;7.72;;
13832;SDS011;6987;19.472;-99.276;2022-10-31T10:24:20;13.27;;;8.90;;
13832;SDS011;6987;19.472;-99.276;2022-10-31T10:26:53;9.25;;;8.30;;
13832;SDS011;6987;19.472;-99.276;2022-10-31T10:29:29;9.70;;;8.68;;
13832;SDS011;6987;19.472;-99.276;2022-10-31T10:31:59;10.00;;;8.27;;
13832;SDS011;6987;19.472;-99.276;2022-10-31T10:34:31;10.57;;;9.23;;
13832;SDS011;6987;19.472;-99.276;2022-10-31T10:37:02;10.98;;;9.55;;
13832;SDS011;6987;19.472;-99.276;2022-10-31T10:39:32;11.27;;;9.13;;
13832;SDS011;6987;19.472;-99.276;2022-10-31T10:42:04;10.77;;;8.68;;
13832;SDS011;6987;19.472;-99.276;2022-10-31T10:44:52;14.10;;;9.23;;
13832;SDS011;6987;19.472;-99.276;2022-10-31T10:47:40;14.65;;;9.35;;
13832;SDS011;6987;19.472;-99.276;2022-10-31T10:50:12;9.65;;;8.63;;
13832;SDS011;6987;19.472;-99.276;2022-10-31T10:52:44;15.88;;;9.40;;
13832;SDS011;6987;19.472;-99.276;2022-10-31T10:55:22;13.55;;;9.50;;
13832;SDS011;6987;19.472;-99.276;2022-10-31T10:57:55;11.90;;;9.77;;
13832;SDS011;6987;19.472;-99.276;2022-10-31T11:00:24;15.07;;;9.82;;
13832;SDS011;6987;19.472;-99.276;2022-10-31T11:02:53;13.75;;;9.35;;
13832;SDS011;6987;19.472;-99.276;2022-10-31T11:05:25;13.60;;;9.00;;
13832;SDS011;6987;19.472;-99.276;2022-10-31T11:07:54;13.30;;;10.25;;
13832;SDS011;6987;19.472;-99.276;2022-10-31T11:10:23;12.38;;;9.80;;
13832;SDS011;6987;19.472;-99.276;2022-10-31T11:15:50;13.32;;;10.00;;
13832;SDS011;6987;19.472;-99.276;2022-10-31T11:18:20;14.73;;;11.25;;
13832;SDS011;6987;19.472;-99.276;2022-10-31T11:20:52;14.02;;;10.38;;
13832;SDS011;6987;19.472;-99.276;2022-10-31T11:23:21;16.98;;;10.63;;
13832;SDS011;6987;19.472;-99.276;2022-10-31T11:25:54;11.80;;;9.18;;
13832;SDS011;6987;19.472;-99.276;2022-10-31T11:28:24;12.30;;;10.52;;
13832;SDS011;6987;19.472;-99.276;2022-10-31T11:30:55;12.75;;;9.50;;
13832;SDS011;6987;19.472;-99.276;2022-10-31T11:33:26;13.65;;;10.32;;
13832;SDS011;6987;19.472;-99.276;2022-10-31T11:35:59;13.02;;;10.02;;
13832;SDS011;6987;19.472;-99.276;2022-10-31T11:38:30;11.75;;;10.02;;
13832;SDS011;6987;19.472;-99.276;2022-10-31T11:41:08;11.20;;;10.00;;
13832;SDS011;6987;19.472;-99.276;2022-10-31T11:43:38;13.35;;;10.25;;
13832;SDS011;6987;19.472;-99.276;2022-10-31T11:46:09;11.38;;;10.20;;
13832;SDS011;6987;19.472;-99.276;2022-10-31T11:48:38;12.77;;;10.00;;
13832;SDS011;6987;19.472;-99.276;2022-10-31T11:51:08;16.67;;;9.75;;
13832;SDS011;6987;19.472;-99.276;2022-10-31T11:53:37;12.65;;;10.32;;
13832;SDS011;6987;19.472;-99.276;2022-10-31T11:56:10;14.10;;;10.40;;
13832;SDS011;6987;19.472;-99.276;2022-10-31T11:58:40;17.40;;;10.32;;
13832;SDS011;6987;19.472;-99.276;2022-10-31T12:01:21;13.95;;;10.55;;
13832;SDS011;6987;19.472;-99.276;2022-10-31T12:03:54;12.07;;;10.80;;
13832;SDS011;6987;19.472;-99.276;2022-10-31T12:06:28;10.95;;;9.88;;
13832;SDS011;6987;19.472;-99.276;2022-10-31T12:08:58;11.60;;;10.23;;
13832;SDS011;6987;19.472;-99.276;2022-10-31T12:11:33;11.70;;;9.23;;
13832;SDS011;6987;19.472;-99.276;2022-10-31T12:14:06;14.27;;;10.68;;
13832;SDS011;6987;19.472;-99.276;2022-10-31T12:16:39;15.55;;;10.30;;
13832;SDS011;6987;19.472;-99.276;2022-10-31T12:19:12;11.13;;;9.70;;
13832;SDS011;6987;19.472;-99.276;2022-10-31T12:21:49;11.98;;;9.90;;
13832;SDS011;6987;19.472;-99.276;2022-10-31T12:24:25;11.75;;;10.55;;
13832;SDS011;6987;19.472;-99.276;2022-10-31T12:26:58;14.25;;;10.60;;
13832;SDS011;6987;19.472;-99.276;2022-10-31T12:29:34;11.73;;;10.52;;
13832;SDS011;6987;19.472;-99.276;2022-10-31T12:32:13;15.48;;;11.40;;
13832;SDS011;6987;19.472;-99.276;2022-10-31T12:40:25;15.45;;;12.02;;
13832;SDS011;6987;19.472;-99.276;2022-10-31T12:42:59;11.43;;;10.20;;
13832;SDS011;6987;19.472;-99.276;2022-10-31T12:45:35;17.00;;;10.82;;
13832;SDS011;6987;19.472;-99.276;2022-10-31T12:50:56;13.05;;;10.27;;
13832;SDS011;6987;19.472;-99.276;2022-10-31T12:53:32;12.65;;;10.00;;
13832;SDS011;6987;19.472;-99.276;2022-10-31T12:56:13;15.55;;;11.25;;
13832;SDS011;6987;19.472;-99.276;2022-10-31T12:58:45;20.95;;;11.23;;
13832;SDS011;6987;19.472;-99.276;2022-10-31T13:01:15;16.13;;;11.73;;
13832;SDS011;6987;19.472;-99.276;2022-10-31T13:03:46;15.10;;;11.55;;
13832;SDS011;6987;19.472;-99.276;2022-10-31T13:06:17;11.38;;;10.20;;
13832;SDS011;6987;19.472;-99.276;2022-10-31T13:08:47;13.23;;;11.32;;
13832;SDS011;6987;19.472;-99.276;2022-10-31T13:11:20;16.75;;;11.70;;
13832;SDS011;6987;19.472;-99.276;2022-10-31T13:13:53;15.60;;;11.68;;
13832;SDS011;6987;19.472;-99.276;2022-10-31T13:16:23;14.57;;;11.05;;
13832;SDS011;6987;19.472;-99.276;2022-10-31T13:18:54;14.23;;;11.48;;
13832;SDS011;6987;19.472;-99.276;2022-10-31T13:21:25;16.27;;;11.35;;
13832;SDS011;6987;19.472;-99.276;2022-10-31T13:23:54;13.82;;;12.40;;
13832;SDS011;6987;19.472;-99.276;2022-10-31T13:26:27;19.23;;;11.80;;
13832;SDS011;6987;19.472;-99.276;2022-10-31T13:29:00;14.05;;;11.20;;
13832;SDS011;6987;19.472;-99.276;2022-10-31T13:31:33;18.08;;;12.18;;
13832;SDS011;6987;19.472;-99.276;2022-10-31T13:34:03;27.63;;;13.57;;
13832;SDS011;6987;19.472;-99.276;2022-10-31T13:36:35;21.77;;;13.05;;
13832;SDS011;6987;19.472;-99.276;2022-10-31T13:39:14;23.13;;;12.80;;
13832;SDS011;6987;19.472;-99.276;2022-10-31T13:41:49;18.20;;;12.13;;
13832;SDS011;6987;19.472;-99.276;2022-10-31T13:44:20;15.05;;;12.82;;
13832;SDS011;6987;19.472;-99.276;2022-10-31T13:46:50;18.85;;;14.45;;
13832;SDS011;6987;19.472;-99.276;2022-10-31T13:49:24;20.10;;;12.45;;
13832;SDS011;6987;19.472;-99.276;2022-10-31T13:51:53;16.08;;;11.15;;
13832;SDS011;6987;19.472;-99.276;2022-10-31T13:54:34;13.98;;;12.18;;
13832;SDS011;6987;19.472;-99.276;2022-10-31T13:57:06;16.33;;;12.20;;
13832;SDS011;6987;19.472;-99.276;2022-10-31T13:59:35;15.48;;;12.52;;
13832;SDS011;6987;19.472;-99.276;2022-10-31T14:02:12;20.95;;;14.15;;
13832;SDS011;6987;19.472;-99.276;2022-10-31T14:04:44;26.05;;;13.90;;
13832;SDS011;6987;19.472;-99.276;2022-10-31T14:07:13;22.60;;;13.52;;
13832;SDS011;6987;19.472;-99.276;2022-10-31T14:09:49;20.30;;;14.13;;
13832;SDS011;6987;19.472;-99.276;2022-10-31T14:12:24;23.88;;;15.30;;
13832;SDS011;6987;19.472;-99.276;2022-10-31T14:14:55;21.13;;;13.75;;
13832;SDS011;6987;19.472;-99.276;2022-10-31T14:17:25;22.63;;;15.95;;
13832;SDS011;6987;19.472;-99.276;2022-10-31T14:22:46;21.55;;;15.80;;
13832;SDS011;6987;19.472;-99.276;2022-10-31T14:28:20;22.08;;;17.83;;
13832;SDS011;6987;19.472;-99.276;2022-10-31T14:30:52;21.13;;;17.40;;
13832;SDS011;6987;19.472;-99.276;2022-10-31T14:33:22;20.92;;;16.77;;
13832;SDS011;6987;19.472;-99.276;2022-10-31T14:35:52;27.02;;;18.10;;
13832;SDS011;6987;19.472;-99.276;2022-10-31T14:41:13;24.92;;;19.48;;
13832;SDS011;6987;19.472;-99.276;2022-10-31T14:43:52;33.70;;;20.23;;
13832;SDS011;6987;19.472;-99.276;2022-10-31T14:46:30;29.52;;;19.42;;
13832;SDS011;6987;19.472;-99.276;2022-10-31T14:49:04;34.75;;;19.98;;
13832;SDS011;6987;19.472;-99.276;2022-10-31T14:51:36;25.13;;;19.45;;
13832;SDS011;6987;19.472;-99.276;2022-10-31T14:54:08;27.90;;;19.25;;
13832;SDS011;6987;19.472;-99.276;2022-10-31T14:56:46;27.38;;;19.95;;
13832;SDS011;6987;19.472;-99.276;2022-10-31T14:59:18;23.42;;;19.15;;
13832;SDS011;6987;19.472;-99.276;2022-10-31T15:01:52;25.83;;;19.42;;
13832;SDS011;6987;19.472;-99.276;2022-10-31T15:04:22;24.58;;;18.70;;
13832;SDS011;6987;19.472;-99.276;2022-10-31T15:06:52;24.55;;;18.67;;
13832;SDS011;6987;19.472;-99.276;2022-10-31T15:09:22;23.98;;;18.70;;